createdAt,value
2022-09-23T00:01:38.414Z,8.10
2022-09-23T00:04:06.442Z,6.85
2022-09-23T00:06:34.378Z,7.60
2022-09-23T00:09:03.933Z,7.95
2022-09-23T00:11:31.954Z,8.10
2022-09-23T00:14:01.201Z,7.33
2022-09-23T00:16:32.599Z,7.63
2022-09-23T00:19:01.917Z,8.35
2022-09-23T00:21:30.419Z,7.70
2022-09-23T00:23:58.408Z,7.57
2022-09-23T00:26:27.866Z,7.25
2022-09-23T00:28:55.875Z,7.57
2022-09-23T00:31:26.111Z,8.15
2022-09-23T00:33:54.781Z,8.00
2022-09-23T00:36:22.678Z,7.65
2022-09-23T00:38:50.615Z,7.70
2022-09-23T00:41:19.058Z,8.32
2022-09-23T00:43:50.336Z,7.32
2022-09-23T00:46:21.727Z,7.53
2022-09-23T00:48:54.535Z,7.72
2022-09-23T00:51:25.897Z,7.70
2022-09-23T00:53:54.318Z,8.13
2022-09-23T00:56:25.087Z,7.57
2022-09-23T00:58:55.484Z,7.45
2022-09-23T01:01:25.467Z,8.17
2022-09-23T01:03:55.421Z,7.55
2022-09-23T01:06:23.331Z,7.72
2022-09-23T01:08:51.943Z,8.18
2022-09-23T01:11:37.407Z,7.90
2022-09-23T01:14:32.073Z,7.30
2022-09-23T01:17:05.082Z,7.18
2022-09-23T01:20:04.459Z,7.50
2022-09-23T01:22:39.646Z,6.95
2022-09-23T01:25:41.878Z,7.68
2022-09-23T01:28:29.309Z,7.85
2022-09-23T01:31:05.313Z,7.80
2022-09-23T01:33:40.753Z,7.38
2022-09-23T01:36:19.867Z,7.32
2022-09-23T01:38:59.104Z,7.80
2022-09-23T01:41:45.815Z,7.50
2022-09-23T01:44:20.269Z,7.90
2022-09-23T01:46:54.553Z,8.30
2022-09-23T01:49:29.021Z,7.60
2022-09-23T01:52:02.298Z,8.20
2022-09-23T01:54:34.745Z,7.28
2022-09-23T01:57:06.271Z,8.70
2022-09-23T01:59:39.361Z,7.93
2022-09-23T02:02:12.994Z,8.43
2022-09-23T02:04:47.169Z,7.85
2022-09-23T02:07:23.042Z,8.45
2022-09-23T02:09:56.627Z,7.83
2022-09-23T02:12:29.350Z,8.27
2022-09-23T02:15:01.851Z,7.67
2022-09-23T02:17:35.534Z,7.93
2022-09-23T02:20:06.623Z,8.15
2022-09-23T02:22:41.538Z,8.07
2022-09-23T02:25:12.403Z,8.05
2022-09-23T02:27:48.402Z,8.38
2022-09-23T02:30:20.058Z,7.97
2022-09-23T02:32:55.175Z,8.30
2022-09-23T02:35:33.098Z,8.20
2022-09-23T02:38:13.626Z,8.00
2022-09-23T02:40:47.793Z,7.70
2022-09-23T02:43:21.177Z,8.38
2022-09-23T02:45:49.847Z,8.40
2022-09-23T02:48:23.541Z,8.20
2022-09-23T02:50:51.619Z,8.37
2022-09-23T02:53:19.584Z,8.90
2022-09-23T02:55:47.485Z,7.72
2022-09-23T02:58:15.497Z,9.20
2022-09-23T03:00:53.941Z,8.00
2022-09-23T03:03:38.376Z,8.32
2022-09-23T03:06:17.058Z,7.72
2022-09-23T03:08:55.773Z,8.40
2022-09-23T03:11:24.685Z,8.30
2022-09-23T03:13:59.966Z,7.78
2022-09-23T03:16:34.588Z,8.35
2022-09-23T03:19:16.563Z,8.40
2022-09-23T03:21:50.250Z,8.27
2022-09-23T03:24:20.476Z,8.60
2022-09-23T03:26:49.846Z,7.88
2022-09-23T03:29:19.843Z,8.07
2022-09-23T03:31:48.043Z,8.20
2022-09-23T03:34:23.158Z,8.00
2022-09-23T03:37:00.520Z,8.38
2022-09-23T03:39:35.446Z,8.18
2022-09-23T03:42:08.171Z,8.48
2022-09-23T03:44:39.666Z,7.75
2022-09-23T03:47:07.982Z,7.70
2022-09-23T03:49:39.638Z,8.55
2022-09-23T03:52:07.754Z,7.22
2022-09-23T03:54:35.685Z,7.93
2022-09-23T03:57:04.474Z,7.80
2022-09-23T03:59:32.653Z,7.40
2022-09-23T04:02:01.810Z,7.10
2022-09-23T04:04:32.421Z,7.70
2022-09-23T04:07:02.314Z,7.03
2022-09-23T04:09:30.292Z,7.65
2022-09-23T04:11:58.314Z,7.32
2022-09-23T04:14:26.284Z,8.02
2022-09-23T04:16:54.324Z,7.50
2022-09-23T04:19:22.521Z,6.90
2022-09-23T04:21:50.548Z,7.57
2022-09-23T04:24:20.106Z,7.20
2022-09-23T04:26:52.529Z,7.75
2022-09-23T04:29:20.918Z,8.35
2022-09-23T04:31:49.314Z,7.40
2022-09-23T04:34:27.503Z,7.53
2022-09-23T04:36:55.418Z,7.47
2022-09-23T04:39:24.700Z,6.83
2022-09-23T04:41:52.625Z,7.60
2022-09-23T04:44:21.235Z,6.90
2022-09-23T04:46:49.278Z,7.22
2022-09-23T04:49:17.654Z,7.22
2022-09-23T04:51:45.735Z,7.10
2022-09-23T04:54:15.337Z,7.38
2022-09-23T04:56:44.634Z,7.00
2022-09-23T04:59:12.605Z,7.20
2022-09-23T05:01:40.616Z,6.70
2022-09-23T05:04:14.160Z,7.22
2022-09-23T05:06:45.216Z,6.90
2022-09-23T05:09:17.231Z,7.00
2022-09-23T05:11:47.143Z,7.07
2022-09-23T05:14:15.173Z,7.75
2022-09-23T05:16:43.330Z,7.28
2022-09-23T05:19:13.406Z,6.68
2022-09-23T05:21:41.422Z,7.10
2022-09-23T05:24:09.754Z,7.30
2022-09-23T05:26:38.332Z,7.10
2022-09-23T05:29:07.802Z,7.13
2022-09-23T05:31:36.734Z,7.70
2022-09-23T05:34:06.391Z,7.30
2022-09-23T05:36:38.625Z,7.32
2022-09-23T05:39:07.797Z,7.10
2022-09-23T05:41:36.022Z,6.95
2022-09-23T05:44:04.792Z,6.60
2022-09-23T05:46:34.334Z,8.27
2022-09-23T05:49:04.261Z,7.30
2022-09-23T05:51:33.688Z,7.85
2022-09-23T05:54:04.004Z,6.78
2022-09-23T05:56:33.455Z,6.85
2022-09-23T05:59:02.742Z,6.90
2022-09-23T06:01:35.290Z,6.70
2022-09-23T06:04:06.185Z,7.38
2022-09-23T06:06:36.392Z,7.30
2022-09-23T06:09:04.766Z,7.10
2022-09-23T06:11:34.312Z,7.05
2022-09-23T06:14:02.755Z,6.70
2022-09-23T06:16:33.786Z,6.93
2022-09-23T06:19:06.222Z,6.45
2022-09-23T06:21:35.984Z,7.30
2022-09-23T06:24:04.425Z,7.60
2022-09-23T06:26:34.659Z,6.90
2022-09-23T06:29:03.889Z,7.22
2022-09-23T06:31:33.979Z,7.33
2022-09-23T06:34:10.480Z,7.47
2022-09-23T06:36:44.443Z,7.20
2022-09-23T06:39:13.834Z,7.32
2022-09-23T06:41:41.749Z,7.20
2022-09-23T06:44:09.720Z,7.50
2022-09-23T06:46:39.114Z,7.18
2022-09-23T06:49:07.287Z,7.30
2022-09-23T06:51:35.303Z,7.53
2022-09-23T06:54:03.510Z,7.40
2022-09-23T06:56:36.137Z,7.68
2022-09-23T06:59:06.130Z,7.70
2022-09-23T07:01:34.431Z,7.10
2022-09-23T07:04:03.934Z,7.20
2022-09-23T07:06:31.926Z,7.20
2022-09-23T07:09:00.962Z,6.88
2022-09-23T07:11:28.953Z,7.40
2022-09-23T07:13:56.918Z,7.15
2022-09-23T07:16:24.943Z,6.85
2022-09-23T07:18:53.485Z,6.90
2022-09-23T07:21:22.781Z,7.50
2022-09-23T07:23:51.830Z,7.80
2022-09-23T07:26:20.855Z,6.90
2022-09-23T07:28:48.832Z,6.55
2022-09-23T07:31:29.435Z,7.15
2022-09-23T07:34:02.031Z,6.80
2022-09-23T07:36:32.622Z,7.40
2022-09-23T07:39:03.183Z,7.30
2022-09-23T07:41:32.267Z,6.90
2022-09-23T07:44:01.169Z,7.38
2022-09-23T07:46:32.383Z,6.90
2022-09-23T07:49:00.466Z,7.40
2022-09-23T07:51:35.712Z,7.25
2022-09-23T07:54:07.695Z,6.80
2022-09-23T07:56:37.426Z,6.72
2022-09-23T07:59:05.992Z,6.60
2022-09-23T08:01:35.909Z,6.40
2022-09-23T08:04:05.911Z,7.10
2022-09-23T08:06:35.835Z,6.57
2022-09-23T08:09:03.878Z,6.80
2022-09-23T08:11:32.852Z,7.07
2022-09-23T08:14:00.801Z,6.68
2022-09-23T08:16:28.769Z,6.57
2022-09-23T08:18:57.010Z,7.30
2022-09-23T08:21:24.939Z,6.80
2022-09-23T08:23:54.237Z,7.05
2022-09-23T08:26:22.614Z,6.60
2022-09-23T08:28:53.815Z,6.57
2022-09-23T08:31:22.486Z,6.70
2022-09-23T08:33:55.796Z,6.43
2022-09-23T08:36:24.279Z,6.70
2022-09-23T08:38:52.563Z,6.35
2022-09-23T08:41:28.905Z,6.90
2022-09-23T08:44:03.135Z,7.18
2022-09-23T08:46:41.469Z,6.70
2022-09-23T08:49:15.006Z,6.55
2022-09-23T08:51:47.582Z,6.30
2022-09-23T08:54:18.818Z,7.20
2022-09-23T08:56:52.169Z,7.00
2022-09-23T08:59:24.157Z,6.83
2022-09-23T09:01:56.829Z,7.35
2022-09-23T09:04:28.542Z,6.90
2022-09-23T09:07:24.574Z,7.25
2022-09-23T09:09:53.023Z,6.55
2022-09-23T09:12:25.980Z,5.97
2022-09-23T09:15:02.249Z,6.70
2022-09-23T09:17:38.227Z,6.47
2022-09-23T09:20:21.309Z,7.40
2022-09-23T09:22:54.598Z,6.75
2022-09-23T09:25:40.855Z,6.75
2022-09-23T09:28:18.918Z,6.30
2022-09-23T09:30:50.121Z,6.60
2022-09-23T09:33:21.728Z,6.80
2022-09-23T09:36:01.094Z,7.20
2022-09-23T09:38:29.286Z,6.90
2022-09-23T09:41:10.845Z,6.82
2022-09-23T09:43:44.169Z,6.45
2022-09-23T09:46:29.362Z,6.30
2022-09-23T09:49:00.782Z,6.60
2022-09-23T09:51:30.059Z,7.00
2022-09-23T09:54:18.359Z,6.53
2022-09-23T09:59:23.155Z,6.18
2022-09-23T10:01:51.177Z,5.90
2022-09-23T10:04:24.848Z,6.10
2022-09-23T10:07:07.983Z,6.10
2022-09-23T10:09:37.599Z,6.13
2022-09-23T10:12:15.465Z,6.50
2022-09-23T10:14:45.442Z,5.65
2022-09-23T10:17:20.492Z,5.30
2022-09-23T10:19:50.919Z,5.70
2022-09-23T10:22:23.280Z,5.30
2022-09-23T10:24:54.557Z,5.50
2022-09-23T10:27:31.442Z,5.50
2022-09-23T10:30:03.517Z,5.47
2022-09-23T10:32:33.768Z,4.97
2022-09-23T10:35:14.803Z,5.63
2022-09-23T10:37:45.453Z,5.30
2022-09-23T10:40:36.878Z,5.80
2022-09-23T10:43:41.023Z,5.57
2022-09-23T10:46:35.831Z,5.88
2022-09-23T10:49:27.601Z,5.13
2022-09-23T10:52:07.635Z,5.63
2022-09-23T10:54:48.079Z,5.70
2022-09-23T10:57:40.629Z,5.53
2022-09-23T11:00:23.141Z,4.90
2022-09-23T11:03:21.230Z,5.43
2022-09-23T11:06:01.687Z,4.70
2022-09-23T11:08:53.732Z,5.70
2022-09-23T11:11:34.096Z,5.10
2022-09-23T11:14:17.096Z,5.75
2022-09-23T11:17:08.175Z,5.82
2022-09-23T11:20:12.462Z,5.87
2022-09-23T11:22:54.182Z,6.53
2022-09-23T11:25:33.808Z,6.35
2022-09-23T11:28:35.213Z,5.85
2022-09-23T11:31:16.458Z,6.00
2022-09-23T11:34:08.968Z,4.80
2022-09-23T11:36:42.207Z,5.23
2022-09-23T11:39:16.573Z,5.05
2022-09-23T11:41:46.003Z,5.60
2022-09-23T11:44:19.915Z,5.40
2022-09-23T11:46:52.542Z,6.15
2022-09-23T11:49:27.658Z,5.57
2022-09-23T11:52:06.274Z,4.60
2022-09-23T11:54:43.856Z,5.30
2022-09-23T11:57:20.307Z,5.20
2022-09-23T11:59:53.034Z,5.32
2022-09-23T12:02:30.491Z,5.40
2022-09-23T12:05:02.912Z,5.47
2022-09-23T12:07:45.043Z,5.60
2022-09-23T12:10:13.595Z,5.10
2022-09-23T12:12:48.881Z,5.57
2022-09-23T12:15:27.827Z,4.90
2022-09-23T12:18:23.393Z,4.90
2022-09-23T12:21:49.220Z,4.80
2022-09-23T12:24:33.247Z,4.88
2022-09-23T12:27:07.167Z,4.90
2022-09-23T12:29:37.560Z,5.20
2022-09-23T12:32:09.924Z,6.15
2022-09-23T12:34:48.799Z,6.95
2022-09-23T12:37:26.481Z,7.22
2022-09-23T12:39:59.969Z,6.32
2022-09-23T12:42:31.134Z,6.80
2022-09-23T12:45:19.251Z,7.03
2022-09-23T12:47:47.251Z,6.35
2022-09-23T12:50:53.949Z,6.05
2022-09-23T12:54:15.621Z,6.13
2022-09-23T12:57:01.925Z,6.80
2022-09-23T12:59:32.449Z,6.50
2022-09-23T13:02:37.957Z,6.10
2022-09-23T13:05:38.471Z,5.95
2022-09-23T13:08:09.750Z,5.85
2022-09-23T13:10:44.086Z,6.43
2022-09-23T13:13:20.291Z,6.00
2022-09-23T13:15:48.911Z,6.30
2022-09-23T13:18:55.441Z,5.90
2022-09-23T13:22:03.621Z,5.03
2022-09-23T13:24:46.830Z,4.60
2022-09-23T13:27:20.729Z,4.80
2022-09-23T13:29:56.441Z,5.00
2022-09-23T13:32:29.563Z,4.40
2022-09-23T13:34:59.903Z,5.38
2022-09-23T13:37:38.555Z,4.60
2022-09-23T13:40:17.202Z,5.82
2022-09-23T13:42:47.342Z,4.95
2022-09-23T13:45:19.754Z,5.00
2022-09-23T13:47:49.466Z,6.22
2022-09-23T13:50:20.364Z,6.60
2022-09-23T13:52:53.784Z,6.30
2022-09-23T13:55:31.476Z,6.20
2022-09-23T13:58:02.143Z,6.83
2022-09-23T14:00:37.296Z,7.20
2022-09-23T14:03:18.173Z,7.00
2022-09-23T14:05:47.090Z,7.20
2022-09-23T14:08:15.102Z,7.55
2022-09-23T14:10:46.259Z,6.70
2022-09-23T14:13:25.969Z,7.70
2022-09-23T14:15:58.215Z,6.93
2022-09-23T14:18:36.153Z,6.93
2022-09-23T14:21:04.806Z,7.30
2022-09-23T14:23:32.939Z,7.60
2022-09-23T14:26:02.526Z,6.85
2022-09-23T14:28:30.708Z,7.38
2022-09-23T14:31:00.720Z,7.30
2022-09-23T14:33:31.771Z,7.30
2022-09-23T14:36:06.627Z,6.97
2022-09-23T14:38:52.145Z,6.60
2022-09-23T14:41:23.992Z,6.25
2022-09-23T14:43:59.048Z,6.53
2022-09-23T14:46:30.413Z,6.77
2022-09-23T14:49:06.797Z,6.40
2022-09-23T14:51:42.419Z,6.68
2022-09-23T14:54:43.726Z,6.88
2022-09-23T14:57:35.706Z,6.50
2022-09-23T15:00:16.550Z,6.43
2022-09-23T15:02:58.272Z,7.43
2022-09-23T15:05:39.218Z,7.55
2022-09-23T15:08:07.802Z,8.40
2022-09-23T15:10:39.124Z,7.93
2022-09-23T15:13:10.065Z,7.70
2022-09-23T15:15:38.419Z,8.60
2022-09-23T15:18:15.539Z,7.72
2022-09-23T15:20:50.497Z,7.90
2022-09-23T15:23:34.535Z,8.25
2022-09-23T15:26:07.014Z,9.10
2022-09-23T15:28:35.103Z,8.73
2022-09-23T15:31:03.236Z,9.13
2022-09-23T15:33:35.241Z,10.45
2022-09-23T15:36:03.564Z,10.35
2022-09-23T15:38:31.952Z,12.40
2022-09-23T15:40:59.929Z,12.87
2022-09-23T15:43:27.951Z,12.60
2022-09-23T15:45:58.666Z,12.93
2022-09-23T15:48:31.635Z,13.18
2022-09-23T15:51:06.832Z,12.55
2022-09-23T15:53:35.441Z,12.85
2022-09-23T15:56:04.239Z,14.00
2022-09-23T15:58:32.231Z,14.40
2022-09-23T16:01:01.370Z,15.07
2022-09-23T16:03:29.478Z,15.65
2022-09-23T16:06:13.489Z,15.02
2022-09-23T16:08:42.266Z,13.55
2022-09-23T16:11:19.258Z,14.40
2022-09-23T16:13:47.190Z,14.50
2022-09-23T16:16:15.222Z,13.43
2022-09-23T16:18:44.057Z,13.82
2022-09-23T16:21:15.550Z,13.73
2022-09-23T16:23:47.335Z,13.98
2022-09-23T16:26:18.781Z,13.95
2022-09-23T16:28:48.332Z,13.63
2022-09-23T16:31:17.062Z,14.77
2022-09-23T16:33:45.237Z,14.33
2022-09-23T16:36:22.402Z,14.43
2022-09-23T16:38:50.487Z,15.07
2022-09-23T16:41:18.403Z,15.40
2022-09-23T16:43:46.358Z,15.70
2022-09-23T16:46:16.569Z,15.98
2022-09-23T16:48:49.688Z,16.50
2022-09-23T16:51:23.843Z,17.02
2022-09-23T16:53:52.679Z,15.70
2022-09-23T16:56:27.989Z,14.10
2022-09-23T16:58:57.305Z,15.32
2022-09-23T17:01:50.282Z,15.03
2022-09-23T17:04:19.470Z,15.30
2022-09-23T17:06:50.204Z,15.73
2022-09-23T17:09:19.862Z,14.13
2022-09-23T17:11:52.918Z,16.10
2022-09-23T17:14:21.133Z,15.20
2022-09-23T17:16:49.136Z,15.10
2022-09-23T17:19:17.158Z,15.33
2022-09-23T17:21:45.084Z,14.75
2022-09-23T17:24:14.406Z,14.70
2022-09-23T17:26:44.237Z,15.23
2022-09-23T17:29:12.304Z,14.95
2022-09-23T17:31:40.267Z,15.05
2022-09-23T17:34:08.228Z,14.10
2022-09-23T17:36:36.178Z,13.77
2022-09-23T17:39:05.355Z,13.60
2022-09-23T17:41:34.663Z,13.80
2022-09-23T17:44:03.035Z,14.10
2022-09-23T17:46:31.054Z,15.00
2022-09-23T17:48:59.233Z,14.25
2022-09-23T17:51:27.589Z,15.65
2022-09-23T17:53:55.566Z,13.93
2022-09-23T17:56:24.875Z,17.13
2022-09-23T17:58:55.209Z,16.40
2022-09-23T18:01:24.822Z,17.10
2022-09-23T18:03:54.959Z,15.10
2022-09-23T18:06:24.617Z,14.90
2022-09-23T18:08:53.534Z,13.75
2022-09-23T18:11:23.615Z,14.63
2022-09-23T18:13:54.491Z,13.05
2022-09-23T18:16:24.651Z,14.27
2022-09-23T18:18:53.486Z,13.90
2022-09-23T18:21:21.840Z,14.60
2022-09-23T18:23:50.381Z,13.70
2022-09-23T18:26:19.621Z,13.80
2022-09-23T18:28:48.165Z,14.30
2022-09-23T18:31:17.832Z,15.40
2022-09-23T18:33:50.202Z,11.85
2022-09-23T18:36:18.300Z,14.00
2022-09-23T18:38:46.654Z,14.15
2022-09-23T18:41:14.943Z,13.75
2022-09-23T18:43:47.635Z,13.02
2022-09-23T18:46:19.315Z,13.70
2022-09-23T18:49:05.140Z,14.48
2022-09-23T18:51:34.875Z,13.77
2022-09-23T18:54:05.338Z,13.90
2022-09-23T18:56:37.180Z,13.60
2022-09-23T18:59:07.138Z,15.40
2022-09-23T19:01:36.808Z,15.23
2022-09-23T19:04:05.097Z,14.75
2022-09-23T19:06:34.640Z,15.15
2022-09-23T19:09:02.828Z,17.23
2022-09-23T19:11:30.983Z,17.38
2022-09-23T19:14:01.916Z,17.58
2022-09-23T19:16:31.741Z,17.80
2022-09-23T19:19:02.057Z,16.85
2022-09-23T19:21:31.218Z,17.45
2022-09-23T19:24:03.028Z,17.23
2022-09-23T19:26:33.617Z,16.40
2022-09-23T19:29:02.691Z,15.75
2022-09-23T19:31:33.398Z,14.57
2022-09-23T19:34:04.521Z,13.88
2022-09-23T19:36:34.117Z,12.48
2022-09-23T19:39:03.648Z,12.83
2022-09-23T19:41:33.367Z,13.15
2022-09-23T19:44:03.586Z,12.93
2022-09-23T19:46:32.438Z,13.48
2022-09-23T19:49:02.841Z,13.23
2022-09-23T19:51:31.677Z,13.60
2022-09-23T19:54:01.070Z,13.13
2022-09-23T19:56:29.373Z,12.07
2022-09-23T19:58:58.295Z,13.60
2022-09-23T20:01:27.329Z,12.87
2022-09-23T20:03:55.825Z,13.15
2022-09-23T20:06:25.166Z,12.50
2022-09-23T20:08:53.115Z,12.20
2022-09-23T20:11:28.094Z,14.45
2022-09-23T20:14:02.771Z,12.43
2022-09-23T20:16:32.875Z,12.00
2022-09-23T20:19:01.868Z,12.10
2022-09-23T20:21:31.520Z,12.18
2022-09-23T20:23:59.625Z,11.93
2022-09-23T20:26:45.087Z,13.10
2022-09-23T20:29:13.163Z,12.63
2022-09-23T20:31:41.601Z,11.80
2022-09-23T20:34:11.012Z,13.07
2022-09-23T20:36:42.505Z,13.05
2022-09-23T20:39:10.780Z,13.80
2022-09-23T20:41:39.634Z,13.93
2022-09-23T20:44:12.287Z,13.38
2022-09-23T20:46:44.119Z,15.43
2022-09-23T20:49:15.003Z,13.17
2022-09-23T20:51:44.319Z,13.20
2022-09-23T20:54:13.008Z,12.97
2022-09-23T20:56:41.177Z,13.43
2022-09-23T20:59:11.305Z,13.85
2022-09-23T21:01:39.251Z,12.18
2022-09-23T21:04:08.006Z,11.50
2022-09-23T21:06:37.049Z,12.82
2022-09-23T21:09:07.684Z,11.60
2022-09-23T21:11:35.773Z,11.85
2022-09-23T21:14:04.017Z,11.18
2022-09-23T21:16:32.336Z,11.73
2022-09-23T21:19:00.495Z,10.60
2022-09-23T21:21:28.381Z,11.00
2022-09-23T21:24:07.022Z,11.60
2022-09-23T21:26:47.316Z,11.02
2022-09-23T21:29:15.289Z,9.77
2022-09-23T21:31:43.230Z,10.03
2022-09-23T21:34:14.506Z,10.88
2022-09-23T21:36:44.149Z,11.20
2022-09-23T21:39:12.941Z,11.00
2022-09-23T21:41:41.141Z,11.13
2022-09-23T21:44:10.540Z,10.73
2022-09-23T21:46:38.538Z,11.02
2022-09-23T21:49:06.598Z,10.80
2022-09-23T21:51:40.496Z,11.65
2022-09-23T21:54:12.637Z,11.32
2022-09-23T21:56:40.569Z,11.90
2022-09-23T21:59:10.192Z,12.07
2022-09-23T22:01:40.862Z,12.43
2022-09-23T22:04:15.121Z,13.27
2022-09-23T22:06:43.258Z,12.67
2022-09-23T22:09:14.516Z,13.98
2022-09-23T22:12:00.700Z,12.00
2022-09-23T22:14:30.582Z,13.10
2022-09-23T22:17:01.376Z,14.60
2022-09-23T22:19:35.010Z,13.73
2022-09-23T22:22:07.247Z,13.00
2022-09-23T22:24:35.268Z,14.18
2022-09-23T22:27:03.167Z,14.40
2022-09-23T22:29:49.724Z,14.05
2022-09-23T22:32:43.909Z,14.73
2022-09-23T22:35:13.116Z,15.88
2022-09-23T22:37:40.981Z,15.75
2022-09-23T22:40:11.506Z,17.10
2022-09-23T22:42:40.764Z,15.45
2022-09-23T22:45:11.728Z,17.40
2022-09-23T22:47:44.019Z,16.33
2022-09-23T22:50:13.844Z,17.08
2022-09-23T22:52:41.827Z,17.43
2022-09-23T22:55:10.465Z,17.23
2022-09-23T22:57:38.468Z,17.08
2022-09-23T23:00:08.418Z,17.40
2022-09-23T23:02:37.727Z,17.52
2022-09-23T23:05:06.242Z,15.85
2022-09-23T23:07:36.231Z,16.50
2022-09-23T23:10:04.665Z,15.82
2022-09-23T23:12:33.691Z,15.27
2022-09-23T23:15:01.615Z,14.45
2022-09-23T23:17:29.834Z,14.35
2022-09-23T23:19:59.112Z,14.05
2022-09-23T23:22:28.396Z,14.27
2022-09-23T23:24:56.394Z,12.73
2022-09-23T23:27:24.287Z,12.27
2022-09-23T23:29:52.214Z,12.55
2022-09-23T23:32:20.082Z,12.18
2022-09-23T23:34:48.220Z,11.43
2022-09-23T23:37:20.824Z,10.90
2022-09-23T23:39:49.017Z,11.43
2022-09-23T23:42:17.012Z,10.25
2022-09-23T23:44:44.894Z,10.57
2022-09-23T23:47:12.959Z,10.13
2022-09-23T23:49:40.856Z,10.68
2022-09-23T23:52:08.738Z,11.30
2022-09-23T23:54:38.451Z,10.60
2022-09-23T23:57:06.432Z,10.43
2022-09-23T23:59:34.359Z,10.15
